Time;durP1;ratioP1;P1;durP2;ratioP2;P2;SDS_P1;SDS_P2;PMS_P1;PMS_P2;Temp;Humidity;BMP_temperature;BMP_pressure;BME280_temperature;BME280_humidity;BME280_pressure;Samples;Min_cycle;Max_cycle;Signal;HPM_P1;HPM_P2
2022/03/01 00:00:39;;;;;;;12.32;5.88;;;4.30;99.90;;;;;;4998631;28;20109;-61
2022/03/01 00:03:05;;;;;;;17.60;5.78;;;4.20;99.90;;;;;;4996804;28;20039;-61
2022/03/01 00:05:31;;;;;;;15.45;6.28;;;4.20;99.90;;;;;;4999646;28;20512;-62
2022/03/01 00:07:57;;;;;;;16.10;5.93;;;4.30;99.90;;;;;;5002572;28;20034;-61
2022/03/01 00:10:23;;;;;;;13.48;5.80;;;4.30;99.90;;;;;;4997336;28;20042;-60
2022/03/01 00:12:49;;;;;;;20.55;6.90;;;4.30;99.90;;;;;;5001153;28;20437;-61
2022/03/01 00:15:14;;;;;;;12.57;5.75;;;4.30;99.90;;;;;;4998842;28;20034;-61
2022/03/01 00:17:40;;;;;;;14.93;6.28;;;4.30;99.90;;;;;;4994987;28;20372;-60
2022/03/01 00:20:06;;;;;;;16.05;7.15;;;4.30;99.90;;;;;;4999100;28;20034;-61
2022/03/01 00:22:33;;;;;;;16.50;6.07;;;4.30;99.90;;;;;;4999554;28;20084;-61
2022/03/01 00:24:59;;;;;;;12.38;5.13;;;4.40;99.90;;;;;;5000132;28;20042;-62
2022/03/01 00:27:25;;;;;;;14.45;5.50;;;4.40;99.90;;;;;;5000452;28;20096;-62
2022/03/01 00:29:50;;;;;;;14.25;5.13;;;4.30;99.90;;;;;;4998512;28;20038;-63
2022/03/01 00:32:16;;;;;;;15.25;5.88;;;4.30;99.90;;;;;;5001576;28;20129;-62
2022/03/01 00:34:41;;;;;;;15.65;6.80;;;4.30;99.90;;;;;;4997610;28;20188;-64
2022/03/01 00:37:07;;;;;;;14.75;5.90;;;4.20;99.90;;;;;;5001737;28;20083;-62
2022/03/01 00:39:33;;;;;;;14.05;5.75;;;4.10;99.90;;;;;;4998854;28;20030;-61
2022/03/01 00:41:58;;;;;;;15.02;5.97;;;4.10;99.90;;;;;;5001858;28;20044;-61
2022/03/01 00:44:24;;;;;;;10.57;4.95;;;4.10;99.90;;;;;;4999183;28;20052;-62
2022/03/01 00:46:50;;;;;;;15.63;5.60;;;4.10;99.90;;;;;;4997567;28;20034;-60
2022/03/01 00:49:15;;;;;;;12.60;5.00;;;4.20;99.90;;;;;;5001427;28;20038;-60
2022/03/01 00:51:41;;;;;;;16.05;5.63;;;4.20;99.90;;;;;;4997761;28;20041;-61
2022/03/01 00:54:06;;;;;;;16.00;6.65;;;4.20;99.90;;;;;;5001262;28;20398;-61
2022/03/01 00:56:34;;;;;;;13.98;5.80;;;4.20;99.90;;;;;;4998629;28;20498;-61
2022/03/01 00:58:59;;;;;;;14.50;6.82;;;4.20;99.90;;;;;;5000121;28;20188;-61
2022/03/01 01:01:25;;;;;;;14.98;5.75;;;4.20;99.90;;;;;;4999439;28;20120;-62
2022/03/01 01:03:51;;;;;;;14.10;6.50;;;4.20;99.90;;;;;;4998875;28;20026;-61
2022/03/01 01:06:16;;;;;;;10.77;5.70;;;4.10;99.90;;;;;;4997472;28;20034;-61
2022/03/01 01:08:42;;;;;;;15.38;7.10;;;4.20;99.90;;;;;;5000911;28;20108;-61
2022/03/01 01:11:08;;;;;;;11.27;5.57;;;4.10;99.90;;;;;;4996365;28;20109;-61
2022/03/01 01:13:34;;;;;;;15.27;6.65;;;4.10;99.90;;;;;;5000320;28;20034;-61
2022/03/01 01:15:59;;;;;;;13.90;6.43;;;4.10;99.90;;;;;;4997255;28;20022;-61
2022/03/01 01:18:25;;;;;;;17.20;6.82;;;4.10;99.90;;;;;;5002549;28;20433;-61
2022/03/01 01:20:51;;;;;;;12.32;6.13;;;4.10;99.90;;;;;;5002491;28;20375;-61
2022/03/01 01:23:17;;;;;;;17.02;6.43;;;4.10;99.90;;;;;;5002715;28;20030;-61
2022/03/01 01:25:43;;;;;;;13.05;5.78;;;4.10;99.90;;;;;;5004577;28;20092;-62
2022/03/01 01:28:08;;;;;;;16.00;6.60;;;4.10;99.90;;;;;;5002262;28;20036;-61
2022/03/01 01:30:35;;;;;;;12.50;5.43;;;4.10;99.90;;;;;;4998102;28;20039;-61
2022/03/01 01:33:01;;;;;;;16.30;6.20;;;4.10;99.90;;;;;;5004272;28;20037;-61
2022/03/01 01:35:29;;;;;;;12.27;5.72;;;4.00;99.90;;;;;;5002874;28;20038;-61
2022/03/01 01:37:56;;;;;;;15.10;5.55;;;4.10;99.90;;;;;;5003383;28;20039;-62
2022/03/01 01:40:24;;;;;;;11.43;5.32;;;4.10;99.90;;;;;;5002781;28;20034;-61
2022/03/01 01:42:51;;;;;;;16.90;5.38;;;4.10;99.90;;;;;;5003062;28;20038;-61
2022/03/01 01:45:18;;;;;;;14.55;5.90;;;4.10;99.90;;;;;;5003929;28;20080;-60
2022/03/01 01:47:43;;;;;;;11.63;5.38;;;4.10;99.90;;;;;;5001733;28;20062;-60
2022/03/01 01:50:10;;;;;;;16.20;6.53;;;4.10;99.90;;;;;;5004648;28;20073;-61
2022/03/01 01:52:36;;;;;;;20.52;5.85;;;4.10;99.90;;;;;;5001201;28;20046;-61
2022/03/01 01:55:02;;;;;;;14.80;5.60;;;4.10;99.90;;;;;;5001167;28;20039;-61
2022/03/01 01:57:28;;;;;;;18.55;6.20;;;4.10;99.90;;;;;;5003830;28;20148;-61
2022/03/01 01:59:55;;;;;;;15.40;5.90;;;4.10;99.90;;;;;;5003790;28;20035;-61
2022/03/01 02:02:23;;;;;;;13.65;6.03;;;4.10;99.90;;;;;;5002865;28;20409;-62
2022/03/01 02:04:48;;;;;;;13.63;6.65;;;4.10;99.90;;;;;;5003347;28;20563;-61
2022/03/01 02:07:15;;;;;;;17.50;5.75;;;4.10;99.90;;;;;;5001811;28;20038;-61
2022/03/01 02:09:41;;;;;;;14.90;6.97;;;4.10;99.90;;;;;;5004059;28;20037;-61
2022/03/01 02:12:07;;;;;;;11.60;5.05;;;4.10;99.90;;;;;;5000532;28;20089;-60
2022/03/01 02:14:35;;;;;;;13.27;6.30;;;4.10;99.90;;;;;;5004278;28;20497;-60
2022/03/01 02:17:03;;;;;;;13.70;4.97;;;4.10;99.90;;;;;;5000764;28;20030;-61
2022/03/01 02:19:29;;;;;;;14.48;7.00;;;4.00;99.90;;;;;;5003578;28;20036;-61
2022/03/01 02:21:56;;;;;;;12.98;5.70;;;4.00;99.90;;;;;;4999511;28;20042;-63
2022/03/01 02:24:25;;;;;;;17.30;6.40;;;4.00;99.90;;;;;;5003022;28;20026;-60
2022/03/01 02:26:54;;;;;;;14.52;5.32;;;4.00;99.90;;;;;;5002287;28;20092;-62
2022/03/01 02:29:20;;;;;;;13.32;5.82;;;4.00;99.90;;;;;;5000900;28;20528;-62
2022/03/01 02:31:45;;;;;;;17.20;5.90;;;4.00;99.90;;;;;;5000846;28;20121;-62
2022/03/01 02:34:11;;;;;;;11.57;5.47;;;4.00;99.90;;;;;;5003506;28;20041;-63
2022/03/01 02:36:37;;;;;;;14.60;5.30;;;4.00;99.90;;;;;;5000543;28;20445;-61
2022/03/01 02:39:03;;;;;;;12.88;5.95;;;4.10;99.90;;;;;;5000307;28;20034;-61
2022/03/01 02:41:28;;;;;;;14.10;5.03;;;4.10;99.90;;;;;;5003030;28;20026;-61
2022/03/01 02:43:54;;;;;;;13.60;5.88;;;4.10;99.90;;;;;;4999644;28;20038;-62
2022/03/01 02:46:20;;;;;;;10.75;4.97;;;4.10;99.90;;;;;;5002197;28;20038;-62
2022/03/01 02:48:46;;;;;;;14.10;5.57;;;4.20;99.90;;;;;;5001938;28;20030;-61
2022/03/01 02:51:12;;;;;;;15.18;6.57;;;4.20;99.90;;;;;;4999171;28;20045;-61
2022/03/01 02:53:37;;;;;;;14.30;5.68;;;4.20;99.90;;;;;;5003302;28;20438;-61
2022/03/01 02:56:04;;;;;;;12.75;5.20;;;4.20;99.90;;;;;;4998241;28;20038;-61
2022/03/01 02:58:29;;;;;;;13.25;5.55;;;4.20;99.90;;;;;;5003459;28;20375;-61
2022/03/01 03:00:55;;;;;;;14.20;6.15;;;4.20;99.90;;;;;;4999887;28;20045;-61
2022/03/01 03:03:21;;;;;;;11.65;5.25;;;4.20;99.90;;;;;;5002171;28;20067;-62
2022/03/01 03:05:46;;;;;;;14.95;5.50;;;4.20;99.90;;;;;;5001535;28;20141;-61
2022/03/01 03:08:12;;;;;;;18.00;5.70;;;4.20;99.90;;;;;;5000991;28;20089;-62
2022/03/01 03:10:38;;;;;;;10.70;4.93;;;4.20;99.90;;;;;;5002667;28;20367;-61
2022/03/01 03:13:04;;;;;;;10.32;4.50;;;4.20;99.90;;;;;;4999484;28;20352;-61
2022/03/01 03:15:30;;;;;;;16.42;6.15;;;4.20;99.90;;;;;;4995822;28;20026;-62
2022/03/01 03:17:57;;;;;;;13.90;6.00;;;4.20;99.90;;;;;;5002261;28;20022;-61
2022/03/01 03:20:22;;;;;;;14.63;5.97;;;4.20;99.90;;;;;;5000103;28;20120;-63
2022/03/01 03:22:48;;;;;;;9.88;5.50;;;4.10;99.90;;;;;;5001123;28;20113;-62
2022/03/01 03:25:14;;;;;;;9.85;4.80;;;4.20;99.90;;;;;;5001808;28;20025;-61
2022/03/01 03:27:40;;;;;;;12.98;4.93;;;4.20;99.90;;;;;;5000129;28;20038;-60
2022/03/01 03:30:07;;;;;;;13.80;5.78;;;4.20;99.90;;;;;;5002702;28;20044;-62
2022/03/01 03:32:33;;;;;;;14.50;5.32;;;4.20;99.90;;;;;;5002624;28;20406;-62
2022/03/01 03:35:00;;;;;;;10.13;5.90;;;4.20;99.90;;;;;;4999083;28;20041;-62
2022/03/01 03:37:25;;;;;;;12.07;5.70;;;4.20;99.90;;;;;;5009461;28;20049;-62
2022/03/01 03:39:51;;;;;;;18.45;5.53;;;4.20;99.90;;;;;;5009674;28;20399;-65
2022/03/01 03:42:18;;;;;;;12.88;5.40;;;4.20;99.90;;;;;;5007160;28;20056;-61
2022/03/01 03:44:43;;;;;;;17.30;5.93;;;4.20;99.90;;;;;;5000386;28;20084;-62
2022/03/01 03:47:09;;;;;;;12.50;4.28;;;4.20;99.90;;;;;;5001612;28;20433;-61
2022/03/01 03:49:38;;;;;;;10.73;4.97;;;4.20;99.90;;;;;;4999507;28;20098;-60
2022/03/01 03:52:05;;;;;;;14.88;4.78;;;4.20;99.90;;;;;;5000047;28;20382;-60
2022/03/01 03:54:31;;;;;;;11.25;4.88;;;4.20;99.90;;;;;;4999049;28;20401;-60
2022/03/01 03:56:57;;;;;;;15.27;6.47;;;4.20;99.90;;;;;;5001666;28;20564;-60
2022/03/01 03:59:23;;;;;;;12.90;4.75;;;4.20;99.90;;;;;;4999565;28;20112;-61
2022/03/01 04:01:49;;;;;;;11.00;5.43;;;4.20;99.90;;;;;;5000577;28;20490;-62
2022/03/01 04:04:15;;;;;;;17.45;5.38;;;4.20;99.90;;;;;;4999785;28;20405;-62
2022/03/01 04:06:41;;;;;;;12.48;4.57;;;4.10;99.90;;;;;;4998220;28;20038;-62
2022/03/01 04:09:06;;;;;;;12.10;4.93;;;4.20;99.90;;;;;;5001250;28;20122;-60
2022/03/01 04:11:33;;;;;;;13.00;4.82;;;4.30;99.90;;;;;;4997217;28;20045;-61
2022/03/01 04:13:59;;;;;;;11.52;4.75;;;4.30;99.90;;;;;;5001524;28;20034;-60
2022/03/01 04:16:25;;;;;;;10.90;3.95;;;4.40;99.90;;;;;;4997732;28;20050;-60
2022/03/01 04:18:51;;;;;;;12.23;4.90;;;4.40;99.90;;;;;;5000871;28;20528;-62
2022/03/01 04:21:17;;;;;;;10.23;5.03;;;4.40;99.90;;;;;;4998760;28;20065;-61
2022/03/01 04:23:42;;;;;;;10.57;4.30;;;4.40;99.90;;;;;;4999753;28;20023;-63
2022/03/01 04:26:08;;;;;;;14.02;4.53;;;4.40;99.90;;;;;;5000881;28;20375;-60
2022/03/01 04:28:34;;;;;;;10.30;4.88;;;4.40;99.90;;;;;;4998960;28;20097;-60
2022/03/01 04:31:00;;;;;;;13.77;4.47;;;4.50;99.90;;;;;;5001257;28;20454;-61
2022/03/01 04:33:26;;;;;;;10.38;4.70;;;4.50;99.90;;;;;;4994514;28;20030;-61
2022/03/01 04:35:51;;;;;;;10.98;4.55;;;4.60;99.90;;;;;;5000788;28;20482;-61
2022/03/01 04:38:17;;;;;;;12.65;5.03;;;4.60;99.90;;;;;;4999405;28;20037;-62
2022/03/01 04:40:43;;;;;;;11.63;4.65;;;4.60;99.90;;;;;;4998291;28;20090;-63
2022/03/01 04:43:09;;;;;;;11.50;4.22;;;4.60;99.90;;;;;;5002981;28;20593;-60
2022/03/01 04:45:35;;;;;;;8.63;4.05;;;4.70;99.90;;;;;;4999082;28;20422;-62
2022/03/01 04:48:00;;;;;;;10.52;4.78;;;4.70;99.90;;;;;;4999667;28;20117;-61
2022/03/01 04:50:27;;;;;;;11.13;4.68;;;4.70;99.90;;;;;;4997553;28;20494;-64
2022/03/01 04:52:53;;;;;;;9.07;4.57;;;4.70;99.90;;;;;;5000699;28;20034;-61
2022/03/01 04:55:18;;;;;;;11.73;4.13;;;4.70;99.90;;;;;;4998912;28;20085;-62
2022/03/01 04:57:44;;;;;;;13.00;5.03;;;4.70;99.90;;;;;;4998581;28;20506;-60
2022/03/01 05:00:12;;;;;;;15.75;5.63;;;4.70;99.90;;;;;;4998224;28;20041;-60
2022/03/01 05:02:43;;;;;;;12.40;4.45;;;4.70;99.90;;;;;;4998135;28;20038;-62
2022/03/01 05:05:13;;;;;;;9.98;4.85;;;4.70;99.90;;;;;;4999744;28;20509;-61
2022/03/01 05:07:40;;;;;;;12.75;5.20;;;4.60;99.90;;;;;;4999722;28;20042;-61
2022/03/01 05:10:07;;;;;;;13.93;4.53;;;4.50;99.90;;;;;;4999266;28;20121;-63
2022/03/01 05:12:39;;;;;;;15.32;6.05;;;4.40;99.90;;;;;;4998885;28;20042;-64
2022/03/01 05:15:05;;;;;;;14.85;6.15;;;4.40;99.90;;;;;;4999948;28;20042;-63
2022/03/01 05:17:31;;;;;;;11.00;4.95;;;4.40;99.90;;;;;;4996878;28;20043;-61
2022/03/01 05:19:56;;;;;;;14.02;5.50;;;4.30;99.90;;;;;;4998598;28;20169;-63
2022/03/01 05:22:22;;;;;;;13.95;5.32;;;4.20;99.90;;;;;;4998090;28;20035;-61
2022/03/01 05:24:47;;;;;;;12.50;5.13;;;4.20;99.90;;;;;;4998775;28;20545;-61
2022/03/01 05:27:14;;;;;;;11.13;5.57;;;4.30;99.90;;;;;;4999162;28;20494;-62
2022/03/01 05:29:39;;;;;;;13.82;5.53;;;4.30;99.90;;;;;;4999560;28;20178;-62
2022/03/01 05:32:06;;;;;;;13.00;4.57;;;4.30;99.90;;;;;;4999170;28;20144;-61
2022/03/01 05:34:32;;;;;;;13.70;5.30;;;4.30;99.90;;;;;;4998702;28;20030;-63
2022/03/01 05:36:57;;;;;;;15.60;4.45;;;4.30;99.90;;;;;;4999350;28;20478;-62
2022/03/01 05:39:23;;;;;;;18.33;5.63;;;4.30;99.90;;;;;;4997428;28;20030;-62
2022/03/01 05:41:49;;;;;;;11.65;4.93;;;4.30;99.90;;;;;;4995012;28;20038;-60
2022/03/01 05:44:14;;;;;;;10.77;4.95;;;4.20;99.90;;;;;;5000760;28;20030;-61
2022/03/01 05:46:40;;;;;;;14.55;5.00;;;4.20;99.90;;;;;;4999286;28;20042;-61
2022/03/01 05:49:07;;;;;;;11.40;4.82;;;4.30;99.90;;;;;;4998422;28;20041;-61
2022/03/01 05:51:33;;;;;;;12.88;5.65;;;4.20;99.90;;;;;;4999480;28;20034;-61
2022/03/01 05:53:58;;;;;;;10.80;5.18;;;4.30;99.90;;;;;;4998684;28;20041;-62
2022/03/01 05:56:24;;;;;;;12.40;4.72;;;4.30;99.90;;;;;;4997733;28;20413;-61
2022/03/01 05:58:49;;;;;;;10.80;4.68;;;4.30;99.90;;;;;;5000273;28;20054;-61
2022/03/01 06:01:15;;;;;;;13.23;5.35;;;4.30;99.90;;;;;;4996628;28;20030;-61
2022/03/01 06:03:41;;;;;;;9.85;5.10;;;4.30;99.90;;;;;;5001180;28;20520;-62
2022/03/01 06:06:06;;;;;;;13.32;5.40;;;4.30;99.90;;;;;;5000884;28;20026;-61
2022/03/01 06:08:32;;;;;;;9.88;4.60;;;4.40;99.90;;;;;;5001957;28;20034;-62
2022/03/01 06:10:58;;;;;;;10.48;4.55;;;4.40;99.90;;;;;;5001778;28;20045;-63
2022/03/01 06:13:23;;;;;;;14.07;4.70;;;4.40;99.90;;;;;;5000795;28;20031;-61
2022/03/01 06:15:58;;;;;;;11.15;4.22;;;4.40;99.90;;;;;;4990095;28;20405;-62
2022/03/01 06:18:35;;;;;;;9.35;4.50;;;4.30;99.90;;;;;;5006603;28;20044;-61
2022/03/01 06:21:06;;;;;;;10.13;4.22;;;4.40;99.90;;;;;;4990723;28;20076;-62
2022/03/01 06:23:35;;;;;;;14.07;5.18;;;4.40;99.90;;;;;;5014863;28;20385;-61
2022/03/01 06:26:03;;;;;;;9.73;4.07;;;4.40;99.90;;;;;;5001512;28;20052;-62
2022/03/01 06:28:34;;;;;;;13.00;4.47;;;4.40;99.90;;;;;;5004954;28;20379;-62
2022/03/01 06:31:06;;;;;;;10.07;4.72;;;4.40;99.90;;;;;;5001879;28;20080;-61
2022/03/01 06:33:34;;;;;;;10.05;4.10;;;4.50;99.90;;;;;;5009522;28;20440;-63
2022/03/01 06:36:00;;;;;;;8.40;4.68;;;4.50;99.90;;;;;;4980829;28;20117;-62
2022/03/01 06:38:34;;;;;;;15.95;5.15;;;4.50;99.90;;;;;;4991016;28;20197;-62
2022/03/01 06:41:17;;;;;;;11.77;4.55;;;4.50;99.90;;;;;;5001291;28;20029;-62
2022/03/01 06:43:42;;;;;;;10.73;4.55;;;4.50;99.90;;;;;;5007602;28;20144;-62
2022/03/01 06:46:08;;;;;;;10.32;4.25;;;4.60;99.90;;;;;;5001779;28;20509;-61
2022/03/01 06:48:37;;;;;;;12.30;4.63;;;4.70;99.90;;;;;;4999340;28;20045;-61
2022/03/01 06:51:03;;;;;;;13.00;4.32;;;4.70;99.90;;;;;;5001650;28;20039;-63
2022/03/01 06:53:39;;;;;;;7.72;4.07;;;4.70;99.90;;;;;;4993028;28;20041;-61
2022/03/01 06:56:07;;;;;;;14.60;4.60;;;4.70;99.90;;;;;;5001160;28;20092;-61
2022/03/01 06:58:33;;;;;;;11.23;4.60;;;4.80;99.90;;;;;;5001929;28;20121;-61
2022/03/01 07:01:02;;;;;;;13.55;4.85;;;4.80;99.90;;;;;;5000040;28;20089;-62
2022/03/01 07:03:30;;;;;;;16.13;4.43;;;4.80;99.90;;;;;;5003841;28;20152;-61
2022/03/01 07:06:01;;;;;;;9.23;4.18;;;4.90;99.90;;;;;;5009177;28;20102;-62
2022/03/01 07:08:29;;;;;;;10.73;4.45;;;4.90;99.90;;;;;;5006042;28;20505;-63
2022/03/01 07:10:58;;;;;;;10.70;4.85;;;5.00;99.90;;;;;;4989778;28;20066;-63
2022/03/01 07:13:24;;;;;;;10.40;4.40;;;5.00;99.90;;;;;;4996723;28;20037;-63
2022/03/01 07:15:49;;;;;;;10.18;4.93;;;5.00;99.90;;;;;;5001433;28;20027;-62
2022/03/01 07:18:15;;;;;;;9.93;4.72;;;5.00;99.90;;;;;;4997538;28;20114;-61
2022/03/01 07:20:41;;;;;;;9.30;4.57;;;5.00;99.90;;;;;;5000183;28;20042;-63
2022/03/01 07:23:07;;;;;;;14.15;5.20;;;5.00;99.90;;;;;;5001350;28;20088;-61
2022/03/01 07:25:32;;;;;;;9.85;4.53;;;5.10;99.90;;;;;;4997548;28;20035;-62
2022/03/01 07:27:58;;;;;;;10.65;4.32;;;5.20;99.90;;;;;;4995972;28;20093;-61
2022/03/01 07:30:25;;;;;;;9.88;4.55;;;5.30;99.90;;;;;;4994837;28;20228;-62
2022/03/01 07:32:56;;;;;;;10.13;4.55;;;5.30;99.90;;;;;;4998564;28;20042;-62
2022/03/01 07:35:23;;;;;;;19.33;4.55;;;5.30;99.90;;;;;;4992722;28;20034;-61
2022/03/01 07:37:49;;;;;;;10.43;4.03;;;5.30;99.90;;;;;;4997135;28;20029;-62
2022/03/01 07:40:16;;;;;;;16.75;5.28;;;5.30;99.90;;;;;;4995122;28;20042;-62
2022/03/01 07:42:43;;;;;;;15.88;4.95;;;5.30;99.90;;;;;;4996450;28;20033;-62
2022/03/01 07:45:10;;;;;;;15.73;4.68;;;5.40;99.90;;;;;;4996397;28;20072;-62
2022/03/01 07:47:36;;;;;;;9.27;3.85;;;5.40;99.90;;;;;;4998534;28;20169;-60
2022/03/01 07:50:03;;;;;;;16.13;4.97;;;5.40;99.90;;;;;;4997902;28;20124;-66
2022/03/01 07:52:29;;;;;;;13.95;4.60;;;5.40;99.90;;;;;;5005173;28;20137;-62
2022/03/01 07:54:54;;;;;;;11.73;4.60;;;5.50;99.90;;;;;;5011116;28;20062;-62
2022/03/01 07:57:20;;;;;;;9.90;3.95;;;5.50;99.90;;;;;;5001839;28;20462;-60
2022/03/01 07:59:46;;;;;;;11.77;5.00;;;5.60;99.90;;;;;;4992097;28;20093;-64
2022/03/01 08:02:11;;;;;;;12.38;5.18;;;5.60;99.90;;;;;;4991754;28;20522;-61
2022/03/01 08:04:38;;;;;;;11.43;3.80;;;5.70;99.90;;;;;;4990887;28;20053;-62
2022/03/01 08:07:04;;;;;;;13.45;5.03;;;5.70;99.90;;;;;;4992117;28;20118;-62
2022/03/01 08:09:30;;;;;;;13.90;5.00;;;5.80;99.90;;;;;;4988687;28;20529;-61
2022/03/01 08:11:55;;;;;;;13.63;5.03;;;5.80;99.90;;;;;;4986861;28;20034;-62
2022/03/01 08:14:21;;;;;;;11.82;4.80;;;5.90;99.90;;;;;;4986435;28;20111;-60
2022/03/01 08:16:47;;;;;;;12.48;4.53;;;5.90;99.90;;;;;;4992085;28;20037;-61
2022/03/01 08:19:12;;;;;;;14.38;4.53;;;6.00;99.90;;;;;;4989249;28;20035;-63
2022/03/01 08:21:38;;;;;;;12.52;4.45;;;6.10;99.90;;;;;;4989464;28;20061;-61
2022/03/01 08:24:04;;;;;;;12.85;5.03;;;6.20;99.90;;;;;;4991085;28;20038;-61
2022/03/01 08:26:29;;;;;;;14.32;4.57;;;6.20;99.90;;;;;;4990263;28;20042;-62
2022/03/01 08:28:55;;;;;;;11.00;4.78;;;6.30;99.90;;;;;;4988142;28;20043;-62
2022/03/01 08:31:21;;;;;;;12.77;5.13;;;6.40;99.90;;;;;;4988780;28;20046;-61
2022/03/01 08:33:46;;;;;;;12.77;4.45;;;6.50;99.90;;;;;;4990249;28;20053;-62
2022/03/01 08:36:13;;;;;;;12.27;4.43;;;6.50;99.90;;;;;;4989563;28;20040;-61
2022/03/01 08:38:40;;;;;;;12.80;4.68;;;6.40;99.90;;;;;;4993125;28;20413;-62
2022/03/01 08:41:05;;;;;;;11.35;4.45;;;6.50;99.90;;;;;;4989434;28;20837;-61
2022/03/01 08:43:31;;;;;;;10.82;4.78;;;6.40;99.90;;;;;;4987862;28;20117;-59
2022/03/01 08:45:56;;;;;;;9.80;4.43;;;6.50;99.90;;;;;;4993380;28;20338;-61
2022/03/01 08:48:22;;;;;;;13.55;4.60;;;6.50;99.90;;;;;;4993165;28;20125;-61
2022/03/01 08:50:47;;;;;;;35.75;5.25;;;6.60;99.90;;;;;;4990461;28;20045;-61
2022/03/01 08:53:14;;;;;;;9.45;4.85;;;6.60;99.90;;;;;;4990809;28;20672;-61
2022/03/01 08:55:40;;;;;;;13.77;5.20;;;6.60;99.90;;;;;;4990937;28;20063;-61
2022/03/01 08:58:05;;;;;;;16.20;5.03;;;6.60;99.90;;;;;;4988229;28;20041;-61
2022/03/01 09:00:32;;;;;;;12.35;4.50;;;6.60;99.90;;;;;;4987224;28;20043;-62
2022/03/01 09:02:58;;;;;;;9.55;4.25;;;6.60;99.90;;;;;;4991108;28;20032;-61
2022/03/01 09:05:24;;;;;;;17.13;5.38;;;6.50;99.90;;;;;;4988330;28;20397;-61
2022/03/01 09:07:50;;;;;;;11.93;4.05;;;6.60;99.90;;;;;;4993987;28;20589;-63
2022/03/01 09:10:21;;;;;;;10.13;4.18;;;6.60;99.90;;;;;;4990382;28;20074;-64
2022/03/01 09:12:51;;;;;;;12.93;4.85;;;6.70;99.90;;;;;;4994038;28;20030;-62
2022/03/01 09:15:17;;;;;;;13.80;5.95;;;6.80;99.90;;;;;;4991557;28;20062;-63
2022/03/01 09:17:43;;;;;;;28.33;5.85;;;6.70;99.90;;;;;;4993974;28;20042;-63
2022/03/01 09:20:09;;;;;;;12.15;4.88;;;6.70;99.90;;;;;;4990099;28;20035;-62
2022/03/01 09:22:35;;;;;;;12.40;5.05;;;6.70;99.90;;;;;;4991741;28;20577;-60
2022/03/01 09:25:04;;;;;;;11.85;5.18;;;6.70;99.90;;;;;;4993441;28;20084;-61
2022/03/01 09:27:30;;;;;;;16.90;5.28;;;6.80;99.90;;;;;;4992506;28;20489;-61
2022/03/01 09:29:56;;;;;;;17.25;5.45;;;6.80;99.90;;;;;;4990300;28;20148;-62
2022/03/01 09:32:21;;;;;;;13.70;5.57;;;6.70;99.90;;;;;;4993426;28;20150;-62
2022/03/01 09:34:48;;;;;;;10.55;4.40;;;6.80;99.90;;;;;;4991628;28;20031;-62
2022/03/01 09:37:14;;;;;;;13.52;5.55;;;6.90;99.90;;;;;;4990010;28;20069;-63
2022/03/01 09:39:39;;;;;;;10.52;5.03;;;6.90;99.90;;;;;;4996765;28;20070;-62
2022/03/01 09:42:07;;;;;;;12.02;5.00;;;6.90;99.90;;;;;;4993530;28;20394;-62
2022/03/01 09:44:33;;;;;;;15.98;5.25;;;6.90;99.90;;;;;;4993536;28;20527;-63
2022/03/01 09:46:58;;;;;;;12.35;5.88;;;6.90;99.90;;;;;;4995822;28;20440;-61
2022/03/01 09:49:24;;;;;;;14.30;5.82;;;6.90;99.90;;;;;;4993305;28;20503;-60
2022/03/01 09:51:50;;;;;;;14.63;5.30;;;6.90;99.90;;;;;;4993884;28;20049;-61
2022/03/01 09:54:16;;;;;;;12.27;5.10;;;7.00;99.90;;;;;;4990414;28;20116;-62
2022/03/01 09:56:42;;;;;;;10.52;5.57;;;6.90;99.90;;;;;;4991441;28;20455;-60
2022/03/01 09:59:08;;;;;;;12.77;5.70;;;6.90;99.90;;;;;;4992929;28;20450;-61
2022/03/01 10:01:33;;;;;;;16.25;5.75;;;6.90;99.90;;;;;;4992418;28;20101;-62
2022/03/01 10:04:09;;;;;;;12.65;5.22;;;6.90;99.90;;;;;;4992859;28;20034;-63
2022/03/01 10:06:40;;;;;;;10.55;5.15;;;6.80;99.90;;;;;;4993512;28;20038;-62
2022/03/01 10:09:23;;;;;;;11.60;5.05;;;6.80;99.90;;;;;;4989131;28;20152;-61
2022/03/01 10:11:50;;;;;;;12.95;5.30;;;6.80;99.90;;;;;;4994874;28;20026;-59
2022/03/01 10:14:26;;;;;;;12.82;5.72;;;6.80;99.90;;;;;;4994460;28;20040;-62
2022/03/01 10:16:52;;;;;;;12.02;5.07;;;6.90;99.90;;;;;;4988568;28;20525;-61
2022/03/01 10:19:19;;;;;;;14.90;6.03;;;6.90;99.90;;;;;;4992502;28;20042;-62
2022/03/01 10:21:47;;;;;;;14.55;6.10;;;6.80;99.90;;;;;;4987971;28;20053;-63
2022/03/01 10:24:15;;;;;;;12.55;5.93;;;6.80;99.90;;;;;;4993363;28;20034;-62
2022/03/01 10:26:42;;;;;;;13.32;5.32;;;6.70;99.90;;;;;;4992914;28;20545;-61
2022/03/01 10:29:09;;;;;;;12.18;5.57;;;6.70;99.90;;;;;;4989869;28;20053;-61
2022/03/01 10:31:35;;;;;;;12.23;5.47;;;6.70;99.90;;;;;;4998681;28;20030;-61
2022/03/01 10:34:08;;;;;;;15.20;5.82;;;6.70;99.90;;;;;;4994852;28;20104;-62
2022/03/01 10:36:47;;;;;;;14.20;5.97;;;6.70;99.90;;;;;;4989621;28;20045;-60
2022/03/01 10:39:29;;;;;;;13.80;6.13;;;6.70;99.90;;;;;;4992212;28;20030;-62
2022/03/01 10:41:55;;;;;;;12.77;5.78;;;6.70;99.90;;;;;;4987593;28;20064;-61
2022/03/01 10:44:21;;;;;;;11.85;5.80;;;6.70;99.90;;;;;;4994998;28;20398;-61
2022/03/01 10:46:58;;;;;;;15.82;6.32;;;6.70;99.90;;;;;;4990290;28;20026;-62
2022/03/01 10:49:26;;;;;;;16.02;7.10;;;6.60;99.90;;;;;;4990861;28;20043;-61
2022/03/01 10:52:03;;;;;;;14.52;6.38;;;6.60;99.90;;;;;;4992632;28;20043;-62
2022/03/01 10:54:37;;;;;;;15.25;6.05;;;6.50;99.90;;;;;;4992027;28;20076;-62
2022/03/01 10:57:05;;;;;;;15.23;6.35;;;6.50;99.90;;;;;;4993604;28;20509;-60
2022/03/01 10:59:33;;;;;;;14.52;5.88;;;6.50;99.90;;;;;;4992227;28;20038;-62
2022/03/01 11:01:59;;;;;;;14.52;6.35;;;6.50;99.90;;;;;;4991824;28;20544;-63
2022/03/01 11:04:26;;;;;;;15.82;5.93;;;6.50;99.90;;;;;;4991459;28;20454;-62
2022/03/01 11:07:02;;;;;;;16.52;6.40;;;6.40;99.90;;;;;;4993512;28;20390;-62
2022/03/01 11:09:31;;;;;;;11.80;5.95;;;6.40;99.90;;;;;;4993456;28;20042;-61
2022/03/01 11:11:58;;;;;;;12.82;5.88;;;6.40;99.90;;;;;;4994198;28;20037;-61
2022/03/01 11:14:48;;;;;;;14.05;6.28;;;6.40;99.90;;;;;;4989555;28;20043;-62
2022/03/01 11:17:37;;;;;;;17.05;7.28;;;6.40;99.90;;;;;;4988601;28;20117;-61
2022/03/01 11:20:18;;;;;;;17.60;6.63;;;6.40;99.90;;;;;;4963910;28;20037;-61
2022/03/01 11:22:45;;;;;;;13.73;6.30;;;6.40;99.90;;;;;;4989513;28;20093;-63
2022/03/01 11:25:23;;;;;;;13.63;6.93;;;6.40;99.90;;;;;;4991210;28;20557;-61
2022/03/01 11:27:51;;;;;;;13.10;6.25;;;6.40;99.90;;;;;;4992230;28;20057;-63
2022/03/01 11:30:17;;;;;;;17.02;7.40;;;6.30;99.90;;;;;;4989393;28;20052;-63
2022/03/01 11:32:45;;;;;;;15.70;7.07;;;6.30;99.90;;;;;;4993746;28;20038;-61
2022/03/01 11:35:22;;;;;;;15.70;6.57;;;6.40;99.90;;;;;;4991666;28;20034;-62
2022/03/01 11:38:00;;;;;;;16.25;7.47;;;6.40;99.90;;;;;;4993472;28;20045;-61
2022/03/01 11:40:26;;;;;;;17.60;7.40;;;6.50;99.90;;;;;;4991883;28;20039;-63
2022/03/01 11:42:51;;;;;;;19.00;8.35;;;6.60;99.90;;;;;;4989124;28;20137;-62
2022/03/01 11:45:17;;;;;;;21.73;7.90;;;6.70;99.90;;;;;;4990504;28;20569;-61
2022/03/01 11:47:44;;;;;;;17.92;7.75;;;6.80;99.90;;;;;;4994909;28;20081;-61
2022/03/01 11:50:15;;;;;;;18.08;7.07;;;7.00;99.90;;;;;;4992837;28;20100;-62
2022/03/01 11:53:00;;;;;;;17.23;8.02;;;7.10;99.90;;;;;;4992852;28;20038;-61
2022/03/01 11:55:33;;;;;;;17.40;7.43;;;7.20;99.90;;;;;;4992608;28;20140;-60
2022/03/01 11:57:58;;;;;;;15.23;7.22;;;7.40;99.90;;;;;;4997063;28;20037;-62
2022/03/01 12:00:28;;;;;;;14.10;7.00;;;7.60;99.90;;;;;;4988297;28;20422;-60
2022/03/01 12:02:58;;;;;;;19.58;6.68;;;7.70;99.90;;;;;;4989788;28;20062;-61
2022/03/01 12:05:25;;;;;;;16.88;6.88;;;7.60;99.90;;;;;;4994756;28;20443;-61
2022/03/01 12:07:52;;;;;;;17.40;7.88;;;7.60;99.90;;;;;;4993522;28;20042;-61
2022/03/01 12:10:26;;;;;;;14.70;7.47;;;7.60;99.90;;;;;;4997938;28;20053;-62
2022/03/01 12:12:56;;;;;;;17.02;7.05;;;7.60;99.90;;;;;;4996261;28;20042;-63
2022/03/01 12:15:33;;;;;;;20.75;7.65;;;7.70;99.90;;;;;;4992928;28;20396;-62
2022/03/01 12:18:14;;;;;;;15.73;7.38;;;7.70;99.90;;;;;;4989759;28;20139;-63
2022/03/01 12:20:41;;;;;;;17.08;7.60;;;7.70;99.90;;;;;;4989517;28;20564;-61
2022/03/01 12:23:07;;;;;;;16.65;7.40;;;7.90;99.90;;;;;;4990842;28;20415;-61
2022/03/01 12:25:36;;;;;;;18.90;7.80;;;7.90;99.90;;;;;;4993244;28;20058;-61
2022/03/01 12:28:04;;;;;;;19.80;8.15;;;8.00;99.90;;;;;;4992398;28;20030;-61
2022/03/01 12:30:32;;;;;;;14.93;6.90;;;8.00;99.90;;;;;;4987888;28;20525;-62
2022/03/01 12:32:59;;;;;;;18.35;7.47;;;8.10;99.90;;;;;;4988110;28;20633;-62
2022/03/01 12:35:27;;;;;;;17.40;7.93;;;8.20;99.90;;;;;;4993079;28;20038;-62
2022/03/01 12:37:53;;;;;;;17.50;7.25;;;8.40;99.90;;;;;;4992437;28;20521;-61
2022/03/01 12:40:30;;;;;;;17.60;7.20;;;8.40;99.90;;;;;;4990419;28;20042;-61
2022/03/01 12:43:03;;;;;;;15.15;7.03;;;8.40;99.90;;;;;;4988435;28;20034;-61
2022/03/01 12:45:34;;;;;;;18.25;7.43;;;8.30;99.90;;;;;;4987738;28;20406;-61
2022/03/01 12:48:00;;;;;;;17.35;7.90;;;8.30;99.90;;;;;;4990928;28;20490;-61